Time;durP1;ratioP1;P1;durP2;ratioP2;P2;SDS_P1;SDS_P2;PMS_P1;PMS_P2;Temp;Humidity;BMP_temperature;BMP_pressure;BME280_temperature;BME280_humidity;BME280_pressure;Samples;Min_cycle;Max_cycle;Signal;HPM_P1;HPM_P2
2021/07/12 00:01:57;;;;;;;6.68;2.50;;;;;;;9.70;85.21;90676.81;4993823;28;20050;-86
2021/07/12 00:04:32;;;;;;;4.13;2.45;;;;;;;9.78;84.60;90681.88;4993704;28;20022;-86
2021/07/12 00:07:06;;;;;;;5.55;2.50;;;;;;;9.78;84.95;90676.69;4993776;28;20030;-86
2021/07/12 00:09:46;;;;;;;3.83;2.70;;;;;;;9.74;85.69;90682.88;4993067;28;20060;-84
2021/07/12 00:12:24;;;;;;;4.35;2.95;;;;;;;9.65;86.19;90685.59;5010392;28;20038;-87
2021/07/12 00:15:04;;;;;;;5.43;2.80;;;;;;;9.72;86.95;90667.59;4977402;28;20038;-86
2021/07/12 00:17:41;;;;;;;7.38;3.00;;;;;;;9.64;86.68;90654.69;4993360;28;20038;-86
2021/07/12 00:20:20;;;;;;;3.45;2.47;;;;;;;9.73;86.14;90658.69;4978735;28;20038;-86
2021/07/12 00:22:57;;;;;;;5.50;2.95;;;;;;;9.73;86.28;90665.75;4993675;28;20109;-87
2021/07/12 00:25:32;;;;;;;5.30;2.70;;;;;;;9.72;86.55;90662.41;4993786;28;20422;-86
2021/07/12 00:28:09;;;;;;;6.40;2.60;;;;;;;9.64;86.78;90659.91;4977369;28;20061;-86
2021/07/12 00:30:48;;;;;;;6.25;3.08;;;;;;;9.66;87.05;90655.13;4993471;28;20109;-86
2021/07/12 00:33:26;;;;;;;4.05;2.80;;;;;;;9.56;86.59;90651.88;4978040;28;20403;-87
2021/07/12 00:36:09;;;;;;;4.72;2.50;;;;;;;9.67;86.27;90646.25;4978079;28;20027;-86
2021/07/12 00:38:46;;;;;;;5.68;3.08;;;;;;;9.53;86.51;90659.59;4993937;28;20463;-86
2021/07/12 00:41:26;;;;;;;7.78;2.90;;;;;;;9.56;87.11;90664.13;4974551;28;20026;-85
2021/07/12 00:44:05;;;;;;;6.05;2.90;;;;;;;9.57;87.28;90660.44;4992709;28;20018;-87
2021/07/12 00:46:47;;;;;;;6.40;2.78;;;;;;;9.65;86.92;90651.03;4992571;28;20034;-86
2021/07/12 00:49:21;;;;;;;3.40;2.42;;;;;;;9.44;83.99;90653.75;4977546;28;20110;-86
2021/07/12 00:51:58;;;;;;;4.10;2.35;;;;;;;9.34;84.55;90655.72;4977735;28;20439;-87
2021/07/12 00:54:40;;;;;;;3.50;2.22;;;;;;;9.34;84.50;90653.09;4978137;28;20058;-87
2021/07/12 00:57:17;;;;;;;3.85;2.42;;;;;;;9.23;84.79;90651.28;4977513;28;20030;-87
2021/07/12 00:59:56;;;;;;;6.88;3.60;;;;;;;9.26;86.80;90650.63;4993591;28;20034;-85
2021/07/12 01:02:33;;;;;;;3.53;2.42;;;;;;;9.28;85.76;90646.59;4977371;28;20491;-88
2021/07/12 01:05:08;;;;;;;5.57;2.55;;;;;;;9.22;84.72;90640.13;4977387;28;20022;-87
2021/07/12 01:07:44;;;;;;;6.40;2.50;;;;;;;9.14;84.62;90642.81;4991826;28;20050;-86
2021/07/12 01:10:21;;;;;;;5.45;2.05;;;;;;;9.18;83.62;90654.06;4960689;28;20030;-86
2021/07/12 01:13:26;;;;;;;2.95;2.17;;;;;;;9.14;83.63;90651.38;4991423;28;20036;-86
2021/07/12 01:16:19;;;;;;;5.13;2.10;;;;;;;9.05;83.86;90653.31;4991224;28;20030;-86
2021/07/12 01:19:33;;;;;;;4.72;2.15;;;;;;;8.89;83.95;90653.19;4991652;28;20037;-84
2021/07/12 01:22:20;;;;;;;5.88;2.42;;;;;;;8.93;83.85;90659.25;4990742;28;20589;-88
2021/07/12 01:25:30;;;;;;;3.28;2.17;;;;;;;8.95;83.76;90656.34;4990879;28;20096;-86
2021/07/12 01:28:38;;;;;;;3.83;2.53;;;;;;;8.78;86.13;90663.25;4975100;28;20039;-86
2021/07/12 01:31:46;;;;;;;5.07;2.63;;;;;;;8.77;87.18;90666.19;4989440;28;20030;-86
2021/07/12 01:34:42;;;;;;;6.05;2.75;;;;;;;8.81;86.85;90660.00;4991420;28;20030;-86
2021/07/12 01:37:55;;;;;;;6.35;2.60;;;;;;;8.80;85.87;90665.53;4992161;28;20037;-85
2021/07/12 01:40:51;;;;;;;5.95;2.50;;;;;;;8.96;84.56;90666.41;4995166;28;20026;-87
2021/07/12 01:43:45;;;;;;;4.00;2.70;;;;;;;8.88;85.79;90651.69;4992957;28;20117;-86
2021/07/12 01:46:20;;;;;;;11.32;2.83;;;;;;;8.77;86.30;90643.56;4975839;28;20027;-88
2021/07/12 01:49:12;;;;;;;6.43;2.78;;;;;;;8.86;87.15;90643.44;4976897;28;20076;-87
2021/07/12 01:52:13;;;;;;;5.90;2.60;;;;;;;8.95;86.41;90636.31;4991893;28;20026;-89
2021/07/12 01:55:08;;;;;;;4.50;2.50;;;;;;;8.82;86.27;90642.56;4992333;28;20143;-86
2021/07/12 01:57:43;;;;;;;5.18;2.72;;;;;;;8.78;87.83;90633.91;4990638;28;20030;-87
2021/07/12 02:00:17;;;;;;;5.32;2.80;;;;;;;8.80;88.25;90634.34;4988656;28;20031;-85
2021/07/12 02:02:52;;;;;;;6.95;2.53;;;;;;;8.78;88.03;90632.06;4973224;28;20546;-87
2021/07/12 02:05:30;;;;;;;5.68;2.65;;;;;;;8.79;88.03;90636.16;4988549;28;20031;-86
2021/07/12 02:08:02;;;;;;;4.45;2.80;;;;;;;8.89;88.33;90632.41;4988577;28;20106;-88
2021/07/12 02:10:38;;;;;;;3.67;2.60;;;;;;;8.90;88.34;90628.72;4972467;28;20133;-86
2021/07/12 02:13:21;;;;;;;6.18;2.83;;;;;;;8.91;88.67;90630.25;4988320;28;20035;-86
2021/07/12 02:15:52;;;;;;;4.43;2.88;;;;;;;8.91;88.89;90632.84;4988600;28;20027;-86
2021/07/12 02:18:30;;;;;;;4.80;2.65;;;;;;;8.85;87.49;90626.34;4988474;28;20023;-86
2021/07/12 02:21:06;;;;;;;6.20;2.72;;;;;;;8.83;87.84;90625.88;4987869;28;20443;-88
2021/07/12 02:23:44;;;;;;;6.60;2.60;;;;;;;8.70;85.96;90624.38;4993568;28;20371;-86
2021/07/12 02:26:19;;;;;;;4.43;2.58;;;;;;;8.84;86.19;90624.84;4996900;28;20030;-87
2021/07/12 02:28:56;;;;;;;5.18;2.92;;;;;;;8.77;87.35;90629.81;4987190;28;20019;-87
2021/07/12 02:31:34;;;;;;;4.95;2.70;;;;;;;8.77;87.94;90633.16;4971527;28;20019;-86
2021/07/12 02:34:18;;;;;;;3.97;2.65;;;;;;;8.88;87.50;90622.34;4987259;28;20035;-86
2021/07/12 02:36:55;;;;;;;5.88;2.92;;;;;;;8.87;88.05;90616.38;4971570;28;20035;-88
2021/07/12 02:39:32;;;;;;;5.05;2.60;;;;;;;8.84;88.17;90609.25;4987040;28;20027;-87
2021/07/12 02:42:08;;;;;;;5.00;3.10;;;;;;;8.82;88.68;90611.38;4986943;28;20050;-87
2021/07/12 02:44:43;;;;;;;5.20;3.00;;;;;;;8.81;89.00;90609.88;4973256;28;20399;-86
2021/07/12 02:47:20;;;;;;;5.15;2.67;;;;;;;8.82;89.15;90611.38;4987150;28;20031;-85
2021/07/12 02:49:56;;;;;;;5.38;2.70;;;;;;;8.85;89.32;90610.75;4992495;28;20074;-87
2021/07/12 02:52:43;;;;;;;5.97;2.88;;;;;;;8.88;89.98;90610.09;4971757;28;20027;-86
2021/07/12 02:55:22;;;;;;;4.57;2.58;;;;;;;8.89;88.83;90606.41;4956621;28;20698;-85
2021/07/12 02:57:56;;;;;;;3.80;2.53;;;;;;;8.94;87.85;90603.63;4962186;28;20038;-86
2021/07/12 03:00:33;;;;;;;3.83;2.65;;;;;;;8.84;88.31;90593.66;4993257;23;20081;-87
2021/07/12 03:03:13;;;;;;;6.75;2.67;;;;;;;8.89;88.55;90596.03;4991497;28;20109;-87
2021/07/12 03:05:53;;;;;;;3.90;2.40;;;;;;;8.87;88.72;90590.41;4976026;28;20027;-85
2021/07/12 03:08:32;;;;;;;9.35;2.88;;;;;;;8.86;89.02;90584.44;4976781;28;20053;-87
2021/07/12 03:11:11;;;;;;;3.58;2.40;;;;;;;8.85;88.61;90574.38;4960160;28;20047;-87
2021/07/12 03:14:03;;;;;;;3.90;2.45;;;;;;;8.94;87.52;90576.84;4960622;28;20550;-87
2021/07/12 03:16:41;;;;;;;5.43;2.40;;;;;;;8.84;87.87;90570.25;4975608;28;20584;-87
2021/07/12 03:19:18;;;;;;;4.93;2.60;;;;;;;8.82;88.17;90569.81;4944484;28;20031;-87
2021/07/12 03:21:55;;;;;;;3.80;2.55;;;;;;;8.82;88.42;90569.81;4960216;28;20121;-87
2021/07/12 03:24:33;;;;;;;4.47;2.83;;;;;;;8.75;88.44;90570.34;4959794;28;20054;-87
2021/07/12 03:27:09;;;;;;;5.25;2.47;;;;;;;8.75;88.11;90570.34;4956945;28;20027;-87
2021/07/12 03:29:38;;;;;;;4.22;2.65;;;;;;;8.68;88.45;90564.94;4940866;29;20091;-87
2021/07/12 03:32:11;;;;;;;7.85;3.03;;;;;;;8.61;89.19;90557.69;4939894;29;20039;-87
2021/07/12 03:34:48;;;;;;;5.72;2.97;;;;;;;8.68;89.72;90566.78;4924637;29;20062;-88
2021/07/12 03:37:27;;;;;;;6.07;2.78;;;;;;;8.75;89.31;90569.59;4956030;29;20038;-87
2021/07/12 03:40:07;;;;;;;4.95;2.70;;;;;;;8.65;88.89;90568.19;4924645;29;20074;-87
2021/07/12 03:42:43;;;;;;;4.40;2.72;;;;;;;8.56;88.28;90564.94;4941170;29;20110;-87
2021/07/12 03:45:15;;;;;;;3.55;2.40;;;;;;;8.55;87.76;90574.56;4940452;29;20031;-87
2021/07/12 03:47:47;;;;;;;3.40;2.30;;;;;;;8.50;87.53;90574.78;4940708;29;20034;-88
2021/07/12 03:50:25;;;;;;;7.05;2.78;;;;;;;8.50;88.71;90574.78;4939923;29;20054;-87
2021/07/12 03:53:01;;;;;;;6.93;2.85;;;;;;;8.67;89.74;90573.81;4941059;28;20118;-87
2021/07/12 03:55:39;;;;;;;5.65;2.78;;;;;;;8.79;90.10;90570.47;4925075;29;20050;-87
2021/07/12 03:58:19;;;;;;;5.50;3.25;;;;;;;8.90;89.57;90561.16;4925020;29;20492;-87
2021/07/12 04:00:59;;;;;;;4.07;2.53;;;;;;;8.80;89.57;90554.56;4940423;29;20428;-87
2021/07/12 04:03:38;;;;;;;4.80;2.90;;;;;;;8.81;89.58;90565.72;4940862;29;20020;-86
2021/07/12 04:06:16;;;;;;;5.47;3.47;;;;;;;8.82;89.51;90562.03;4925105;29;20031;-87
2021/07/12 04:08:51;;;;;;;6.22;3.10;;;;;;;8.82;89.82;90562.03;4924983;28;20027;-87
2021/07/12 04:11:31;;;;;;;5.35;2.95;;;;;;;8.91;89.42;90573.06;4955020;29;20106;-87
2021/07/12 04:14:07;;;;;;;4.95;2.63;;;;;;;8.99;89.13;90568.84;4925454;29;20024;-87
2021/07/12 04:16:43;;;;;;;4.65;2.97;;;;;;;9.01;88.50;90561.47;4939701;29;20125;-87
2021/07/12 04:19:24;;;;;;;5.32;3.17;;;;;;;9.00;88.62;90563.31;4955352;28;20396;-88
2021/07/12 04:22:03;;;;;;;4.82;3.33;;;;;;;9.19;88.90;90569.81;4955941;29;20024;-87
2021/07/12 04:24:42;;;;;;;5.22;3.25;;;;;;;9.29;88.13;90574.53;4940663;29;20031;-87
2021/07/12 04:27:20;;;;;;;6.05;3.05;;;;;;;9.26;88.42;90567.41;4940055;29;20023;-87
2021/07/12 04:29:58;;;;;;;5.53;3.20;;;;;;;9.36;88.87;90558.38;4955433;28;20050;-87
2021/07/12 04:32:31;;;;;;;4.90;2.80;;;;;;;9.46;88.89;90563.91;4941092;29;20535;-87
2021/07/12 04:35:10;;;;;;;5.22;3.03;;;;;;;9.70;89.27;90552.66;4939735;29;20035;-87
2021/07/12 04:37:49;;;;;;;4.47;2.75;;;;;;;9.82;88.61;90557.06;4955458;29;20035;-87
2021/07/12 04:40:26;;;;;;;5.25;3.20;;;;;;;9.93;88.56;90558.13;4954997;28;20491;-87
2021/07/12 04:43:07;;;;;;;5.05;3.05;;;;;;;10.06;88.75;90543.19;4955309;28;20476;-88
2021/07/12 04:45:46;;;;;;;5.93;3.28;;;;;;;10.29;88.42;90553.84;4971413;28;20031;-87
2021/07/12 04:48:21;;;;;;;8.52;3.28;;;;;;;10.39;87.68;90542.94;4955191;28;20023;-87
2021/07/12 04:50:49;;;;;;;3.88;2.88;;;;;;;10.52;87.33;90543.63;4954471;28;20031;-88
2021/07/12 04:53:27;;;;;;;4.72;3.00;;;;;;;10.65;87.29;90552.13;4954849;29;20499;-87
2021/07/12 04:55:59;;;;;;;4.15;2.70;;;;;;;10.75;87.10;90552.38;4954672;29;20031;-87
2021/07/12 04:58:44;;;;;;;6.43;3.13;;;;;;;10.77;87.13;90547.56;4938644;28;20027;-87
2021/07/12 05:01:23;;;;;;;4.72;2.90;;;;;;;10.86;87.21;90547.41;4954567;29;20035;-86
2021/07/12 05:04:02;;;;;;;6.20;3.08;;;;;;;10.98;87.43;90538.72;4980251;28;20015;-90
2021/07/12 05:06:41;;;;;;;5.00;3.33;;;;;;;11.14;86.66;90534.25;4996243;28;20241;-85
2021/07/12 05:09:17;;;;;;;5.80;3.00;;;;;;;11.25;86.56;90539.69;4949075;29;20059;-87
2021/07/12 05:11:52;;;;;;;4.70;3.08;;;;;;;11.34;86.81;90535.03;4959558;29;20052;-87
2021/07/12 05:14:26;;;;;;;6.20;3.30;;;;;;;11.42;86.76;90528.88;4960177;29;20032;-87
2021/07/12 05:17:04;;;;;;;8.32;3.05;;;;;;;11.66;87.02;90532.31;4960171;28;20027;-87
2021/07/12 05:19:44;;;;;;;5.65;2.90;;;;;;;11.78;86.36;90513.16;4976060;28;20115;-87
2021/07/12 05:22:14;;;;;;;4.60;2.83;;;;;;;11.89;86.58;90504.44;4965997;28;20100;-87
2021/07/12 05:24:49;;;;;;;6.32;2.90;;;;;;;12.06;87.13;90507.75;4987953;28;20029;-85
2021/07/12 05:27:21;;;;;;;5.15;3.13;;;;;;;12.16;86.79;90497.47;4976666;28;20022;-86
2021/07/12 05:29:53;;;;;;;4.40;2.83;;;;;;;12.22;86.72;90492.69;4960809;28;20121;-85
2021/07/12 05:32:19;;;;;;;4.43;3.00;;;;;;;12.28;86.39;90493.19;4956765;28;20027;-86
2021/07/12 05:34:48;;;;;;;4.25;2.85;;;;;;;12.34;86.48;90494.41;4957788;28;20035;-85
2021/07/12 05:37:14;;;;;;;4.68;3.05;;;;;;;12.37;85.65;90494.47;4954553;29;20770;-85
2021/07/12 05:39:40;;;;;;;5.90;2.60;;;;;;;12.52;84.75;90489.47;4937851;29;20121;-85
2021/07/12 05:42:08;;;;;;;4.10;2.72;;;;;;;12.57;84.88;90494.41;4971572;28;20034;-86
2021/07/12 05:44:38;;;;;;;6.25;3.15;;;;;;;12.62;84.27;90500.09;4958419;28;20031;-86
2021/07/12 05:47:05;;;;;;;4.90;3.08;;;;;;;12.62;84.20;90481.06;4958781;28;20395;-85
2021/07/12 05:49:32;;;;;;;7.82;2.65;;;;;;;12.75;83.66;90484.22;4957546;28;20050;-88
2021/07/12 05:51:58;;;;;;;6.63;2.92;;;;;;;12.76;83.93;90480.50;4957752;28;20056;-87
2021/07/12 05:54:29;;;;;;;4.60;3.00;;;;;;;12.79;83.85;90458.88;4957994;28;20555;-87
2021/07/12 05:56:57;;;;;;;5.40;2.90;;;;;;;12.90;83.92;90457.19;4973722;28;20026;-87
2021/07/12 05:59:25;;;;;;;4.68;3.03;;;;;;;12.99;84.49;90447.22;4953880;28;20038;-87
2021/07/12 06:02:04;;;;;;;5.68;2.90;;;;;;;13.03;84.97;90442.03;4954131;28;20557;-88
2021/07/12 06:04:30;;;;;;;6.95;2.55;;;;;;;13.23;83.98;90456.50;4957656;28;20057;-88
2021/07/12 06:06:57;;;;;;;5.22;2.70;;;;;;;13.27;83.88;90457.31;4954884;28;20384;-88
2021/07/12 06:09:27;;;;;;;3.90;2.53;;;;;;;13.29;84.14;90444.66;4936675;29;20035;-88
2021/07/12 06:12:00;;;;;;;4.25;2.90;;;;;;;13.36;84.27;90444.72;4952746;29;20440;-87
2021/07/12 06:14:26;;;;;;;4.70;3.10;;;;;;;13.37;84.38;90438.38;4957606;28;20494;-88
2021/07/12 06:16:56;;;;;;;3.80;2.83;;;;;;;13.54;84.41;90450.19;4940032;28;20165;-89
2021/07/12 06:19:28;;;;;;;4.28;2.90;;;;;;;13.59;84.48;90436.00;4955557;28;20451;-88
2021/07/12 06:21:55;;;;;;;4.35;2.88;;;;;;;13.74;83.47;90436.91;4941481;28;20522;-89
2021/07/12 06:24:22;;;;;;;5.10;3.10;;;;;;;13.83;82.86;90435.53;4955342;28;20554;-89
2021/07/12 06:26:55;;;;;;;4.28;2.67;;;;;;;13.83;83.39;90427.66;4971901;28;20027;-89
2021/07/12 06:29:21;;;;;;;5.30;2.65;;;;;;;14.06;82.57;90411.03;4955601;28;20038;-88
2021/07/12 06:31:50;;;;;;;6.75;3.05;;;;;;;14.18;82.35;90400.31;4971176;28;20027;-88
2021/07/12 06:34:19;;;;;;;5.05;2.90;;;;;;;14.27;82.05;90394.75;4955455;28;20158;-89
2021/07/12 06:36:47;;;;;;;6.40;2.90;;;;;;;14.38;81.10;90384.34;4971509;28;20027;-88
2021/07/12 06:39:18;;;;;;;4.60;2.97;;;;;;;14.57;81.99;90384.16;4955491;28;20034;-88
2021/07/12 06:41:44;;;;;;;5.57;2.80;;;;;;;14.65;80.96;90377.81;4972222;28;20518;-89
2021/07/12 06:44:15;;;;;;;3.70;2.85;;;;;;;14.77;83.03;90359.19;4956917;28;20030;-87
2021/07/12 06:46:45;;;;;;;8.23;3.00;;;;;;;14.92;81.60;90348.75;4976044;28;20070;-88
2021/07/12 06:49:14;;;;;;;5.15;3.13;;;;;;;15.20;81.99;90348.13;4975231;28;20069;-87
2021/07/12 06:51:44;;;;;;;7.03;3.17;;;;;;;15.41;78.71;90373.72;4958870;28;20035;-88
2021/07/12 06:54:12;;;;;;;4.30;2.40;;;;;;;15.46;76.98;90396.97;4975213;28;20487;-86
2021/07/12 06:56:43;;;;;;;6.85;2.78;;;;;;;15.52;76.77;90409.38;4975298;28;20113;-88
2021/07/12 06:59:10;;;;;;;5.55;2.70;;;;;;;15.84;76.10;90405.38;4942728;28;20068;-86
2021/07/12 07:01:44;;;;;;;5.38;2.78;;;;;;;15.99;76.43;90412.16;4959272;28;20169;-87
2021/07/12 07:04:10;;;;;;;5.38;2.88;;;;;;;16.30;73.27;90388.94;4975481;28;20031;-87
2021/07/12 07:06:36;;;;;;;4.57;2.78;;;;;;;16.47;73.98;90393.44;4942346;28;20033;-88
2021/07/12 07:09:02;;;;;;;4.40;2.85;;;;;;;16.57;72.42;90387.44;4957395;28;20035;-88
2021/07/12 07:11:35;;;;;;;7.53;2.90;;;;;;;16.65;72.89;90386.28;4940379;29;20166;-88
2021/07/12 07:14:03;;;;;;;5.57;2.90;;;;;;;16.90;70.49;90373.13;4956241;29;20034;-89
2021/07/12 07:16:29;;;;;;;5.03;3.25;;;;;;;17.07;70.01;90371.59;4940482;29;20031;-88
2021/07/12 07:18:59;;;;;;;7.10;3.20;;;;;;;17.18;71.79;90376.81;4924308;29;20033;-88
2021/07/12 07:21:30;;;;;;;7.22;3.53;;;;;;;17.43;72.35;90382.00;4941587;29;20027;-87
2021/07/12 07:23:59;;;;;;;5.53;2.60;;;;;;;17.48;68.38;90365.78;4931132;28;20081;-87
2021/07/12 07:26:27;;;;;;;4.40;2.67;;;;;;;17.50;69.29;90355.63;4944501;29;20086;-88
2021/07/12 07:28:56;;;;;;;4.47;2.65;;;;;;;17.56;67.45;90369.91;4933525;28;20026;-88
2021/07/12 07:31:22;;;;;;;4.88;2.72;;;;;;;17.73;68.58;90368.31;4958215;28;20033;-89
2021/07/12 07:33:49;;;;;;;4.97;2.80;;;;;;;17.84;67.28;90378.81;4959047;28;20027;-88
2021/07/12 07:36:16;;;;;;;3.70;2.65;;;;;;;18.04;66.56;90376.47;4958770;28;20026;-88
2021/07/12 07:38:43;;;;;;;5.82;3.33;;;;;;;18.02;65.40;90368.94;4958415;28;20039;-89
2021/07/12 07:41:11;;;;;;;5.18;2.70;;;;;;;18.15;64.11;90361.31;4957994;28;20022;-87
2021/07/12 07:43:38;;;;;;;5.20;2.80;;;;;;;18.21;64.60;90369.59;4958466;28;20026;-90
2021/07/12 07:46:05;;;;;;;4.07;2.72;;;;;;;18.27;67.02;90368.78;4960187;28;20027;-88
2021/07/12 07:48:34;;;;;;;4.70;2.80;;;;;;;18.35;63.94;90378.13;4976287;28;20062;-88
2021/07/12 07:51:01;;;;;;;5.35;2.90;;;;;;;18.40;63.96;90374.31;4974304;28;20555;-89
2021/07/12 07:53:32;;;;;;;5.57;3.00;;;;;;;18.49;64.28;90385.19;4958578;28;20031;-87
2021/07/12 07:55:58;;;;;;;6.70;3.00;;;;;;;18.62;65.94;90380.19;4959474;28;20517;-87
2021/07/12 07:58:30;;;;;;;4.43;3.00;;;;;;;18.59;65.16;90384.38;4958766;28;20041;-87
2021/07/12 08:00:58;;;;;;;6.38;3.00;;;;;;;18.67;65.08;90386.94;4946270;29;20519;-87
2021/07/12 08:03:24;;;;;;;7.47;2.85;;;;;;;18.79;64.09;90384.59;4940003;29;20026;-87
2021/07/12 08:05:50;;;;;;;4.93;3.03;;;;;;;18.67;64.00;90379.78;4939408;29;20023;-87
2021/07/12 08:08:22;;;;;;;7.45;3.30;;;;;;;18.68;62.66;90383.16;4955950;29;20603;-88
2021/07/12 08:10:49;;;;;;;4.93;3.20;;;;;;;18.81;63.38;90378.94;4956258;28;20545;-87
2021/07/12 08:13:14;;;;;;;5.63;2.95;;;;;;;18.80;61.38;90377.44;4959224;28;20479;-86
2021/07/12 08:15:42;;;;;;;6.25;3.08;;;;;;;18.67;62.65;90379.03;4926890;29;20042;-85
2021/07/12 08:18:09;;;;;;;4.13;2.85;;;;;;;18.72;61.57;90373.34;4957283;28;20023;-88
2021/07/12 08:20:37;;;;;;;4.13;3.08;;;;;;;19.01;63.64;90379.88;4940306;29;20054;-87
2021/07/12 08:23:03;;;;;;;5.22;3.40;;;;;;;18.99;63.87;90368.22;4943573;28;20031;-87
2021/07/12 08:25:29;;;;;;;8.73;3.30;;;;;;;19.00;61.22;90364.41;4956997;29;20070;-86
2021/07/12 08:27:55;;;;;;;7.25;3.50;;;;;;;19.12;61.43;90366.56;4939783;28;20023;-84
2021/07/12 08:30:26;;;;;;;5.85;3.55;;;;;;;19.23;61.24;90359.28;4974462;28;20074;-86
2021/07/12 08:32:53;;;;;;;5.35;3.30;;;;;;;19.40;60.20;90351.53;4971764;28;20035;-86
2021/07/12 08:35:24;;;;;;;6.25;3.22;;;;;;;19.28;60.69;90353.56;4940550;29;20023;-86
2021/07/12 08:37:50;;;;;;;5.68;3.03;;;;;;;19.50;60.49;90342.75;4940991;29;20027;-86
2021/07/12 08:40:19;;;;;;;4.72;3.00;;;;;;;19.67;59.41;90346.34;4956222;29;20028;-86
2021/07/12 08:42:45;;;;;;;6.57;3.03;;;;;;;19.81;58.50;90351.44;4940818;29;20054;-86
2021/07/12 08:45:14;;;;;;;4.57;3.22;;;;;;;19.81;58.29;90340.88;4957828;28;20051;-86
2021/07/12 08:47:40;;;;;;;6.18;3.20;;;;;;;19.78;57.61;90352.25;4941375;28;20488;-88
2021/07/12 08:50:11;;;;;;;5.30;3.22;;;;;;;19.85;56.88;90336.28;4986779;28;20018;-87
2021/07/12 08:52:43;;;;;;;4.70;3.10;;;;;;;19.76;57.14;90334.13;4955140;29;20031;-86
2021/07/12 08:55:13;;;;;;;4.18;2.88;;;;;;;19.89;59.31;90339.63;4966202;28;20023;-85
2021/07/12 08:57:41;;;;;;;5.72;3.15;;;;;;;19.81;56.17;90336.31;4957528;28;20125;-86
2021/07/12 09:00:09;;;;;;;5.13;3.15;;;;;;;19.94;55.96;90338.44;5011602;23;20499;-86
2021/07/12 09:02:38;;;;;;;5.05;3.20;;;;;;;19.90;57.00;90333.22;4985655;28;20029;-90
2021/07/12 09:05:07;;;;;;;4.25;2.80;;;;;;;20.10;56.97;90338.56;4995631;28;20022;-89
2021/07/12 09:07:34;;;;;;;8.32;3.30;;;;;;;20.12;57.09;90335.56;4978711;28;20050;-89
2021/07/12 09:10:11;;;;;;;6.20;3.25;;;;;;;20.13;55.78;90337.78;5011318;28;20484;-89
2021/07/12 09:12:58;;;;;;;6.05;3.45;;;;;;;20.11;56.32;90342.00;4984437;28;20526;-90
2021/07/12 09:15:23;;;;;;;7.10;3.42;;;;;;;20.15;57.11;90350.63;4988536;28;20045;-88
2021/07/12 09:17:52;;;;;;;5.53;3.40;;;;;;;20.33;57.23;90353.75;4956925;28;20027;-91
2021/07/12 09:20:33;;;;;;;3.78;2.65;;;;;;;20.33;56.58;90372.28;4956451;28;20019;-88
2021/07/12 09:23:21;;;;;;;3.92;3.00;;;;;;;20.38;55.12;90376.34;4957051;28;20032;-89
2021/07/12 09:26:00;;;;;;;4.38;3.17;;;;;;;20.42;53.74;90371.75;4994108;28;20022;-89
2021/07/12 09:28:30;;;;;;;5.85;3.42;;;;;;;20.38;54.62;90371.81;4960630;28;20033;-89
2021/07/12 09:30:57;;;;;;;6.13;3.20;;;;;;;20.36;54.01;90373.38;4992349;28;20105;-91
2021/07/12 09:33:23;;;;;;;5.80;3.05;;;;;;;20.27;56.86;90377.25;4973064;28;20033;-92
2021/07/12 09:35:49;;;;;;;9.95;3.30;;;;;;;20.48;54.03;90378.84;4957352;28;20483;-88
2021/07/12 09:38:28;;;;;;;4.93;3.10;;;;;;;20.53;55.32;90377.69;4957108;28;20026;-90
2021/07/12 09:40:55;;;;;;;7.65;3.10;;;;;;;20.71;55.68;90382.69;4956135;28;20103;-89
2021/07/12 09:43:32;;;;;;;5.22;3.22;;;;;;;20.77;55.71;90387.09;4956520;28;20023;-90
2021/07/12 09:45:59;;;;;;;4.72;3.22;;;;;;;20.74;53.84;90381.88;4957205;28;20510;-90
2021/07/12 09:48:26;;;;;;;6.28;3.08;;;;;;;20.78;53.24;90372.00;4956955;28;20026;-89
2021/07/12 09:50:53;;;;;;;8.40;3.10;;;;;;;20.89;53.78;90369.91;4956748;28;20053;-89
2021/07/12 09:53:28;;;;;;;3.95;3.00;;;;;;;20.80;55.51;90368.94;4957021;28;20027;-89
2021/07/12 09:56:08;;;;;;;5.20;3.00;;;;;;;20.75;55.00;90365.59;4960068;28;20145;-90
2021/07/12 09:58:36;;;;;;;5.15;3.20;;;;;;;20.69;55.38;90379.69;4973581;28;20435;-87
2021/07/12 10:01:06;;;;;;;4.75;3.05;;;;;;;20.82;55.14;90377.97;4952978;28;20059;-93
2021/07/12 10:03:33;;;;;;;4.75;3.10;;;;;;;20.91;55.61;90380.81;5004164;28;20034;-90
2021/07/12 10:06:00;;;;;;;4.22;2.85;;;;;;;21.04;51.31;90378.34;4979434;28;20116;-90
2021/07/12 10:08:25;;;;;;;5.85;3.25;;;;;;;21.06;52.03;90370.00;4996041;28;20394;-90
2021/07/12 10:10:52;;;;;;;4.93;2.80;;;;;;;21.12;51.53;90384.28;4994440;28;20030;-92
2021/07/12 10:13:18;;;;;;;4.05;2.70;;;;;;;21.27;51.41;90376.81;4978870;28;20018;-89
2021/07/12 10:15:46;;;;;;;4.72;2.50;;;;;;;21.29;49.46;90369.97;4995561;28;20454;-89
2021/07/12 10:18:14;;;;;;;4.15;2.47;;;;;;;21.34;47.28;90372.16;5011984;28;20025;-90
2021/07/12 10:20:41;;;;;;;3.45;2.10;;;;;;;21.57;45.88;90374.00;4996093;28;20030;-88
2021/07/12 10:23:10;;;;;;;3.45;2.13;;;;;;;21.68;43.89;90373.81;4996083;28;20029;-87
2021/07/12 10:25:37;;;;;;;4.63;2.40;;;;;;;21.71;46.25;90376.38;4988330;28;20022;-89
2021/07/12 10:28:05;;;;;;;4.20;2.80;;;;;;;22.02;46.49;90372.75;4976628;28;20057;-90
2021/07/12 10:30:37;;;;;;;5.10;2.35;;;;;;;22.08;46.59;90371.84;4976641;28;20022;-89
2021/07/12 10:33:08;;;;;;;4.47;2.40;;;;;;;22.32;45.67;90379.72;4977884;28;20073;-89
2021/07/12 10:35:41;;;;;;;2.83;2.25;;;;;;;22.29;43.89;90381.28;4986151;28;20070;-89
2021/07/12 10:38:08;;;;;;;4.45;2.53;;;;;;;22.32;41.80;90359.22;5013305;28;20028;-90
2021/07/12 10:40:48;;;;;;;4.10;2.40;;;;;;;22.31;43.87;90347.13;4995993;28;20026;-89
2021/07/12 10:43:34;;;;;;;4.45;2.35;;;;;;;22.50;43.61;90358.81;4992098;28;20054;-90
2021/07/12 10:46:03;;;;;;;3.25;2.38;;;;;;;22.58;42.11;90340.81;4961146;28;20019;-90
2021/07/12 10:48:34;;;;;;;4.15;2.60;;;;;;;22.53;40.78;90343.97;4959519;28;20560;-90
2021/07/12 10:51:03;;;;;;;4.35;2.20;;;;;;;22.60;41.69;90335.84;4957044;28;20196;-89
2021/07/12 10:53:35;;;;;;;4.25;2.35;;;;;;;22.53;39.04;90355.34;4941693;28;20258;-89
2021/07/12 10:56:09;;;;;;;3.70;2.65;;;;;;;22.53;40.76;90346.63;4959158;28;20022;-90
2021/07/12 10:58:37;;;;;;;;;;;;;;;22.58;40.65;90352.19;4959420;28;20480;-93
2021/07/12 11:01:04;;;;;;;6.03;2.53;;;;;;;22.71;42.50;90356.81;4974723;28;20523;-91
2021/07/12 11:03:44;;;;;;;3.80;2.65;;;;;;;22.97;42.42;90368.34;4957562;28;20023;-92
2021/07/12 11:06:17;;;;;;;4.20;2.53;;;;;;;23.17;41.12;90362.94;4973778;28;20037;-90
2021/07/12 11:08:53;;;;;;;4.75;2.70;;;;;;;23.33;42.77;90357.59;4972993;28;20030;-87
2021/07/12 11:11:21;;;;;;;4.85;3.10;;;;;;;23.52;39.65;90358.59;5001558;28;20139;-90
2021/07/12 11:13:58;;;;;;;5.50;2.80;;;;;;;23.50;41.88;90355.59;4986623;28;20063;-90
2021/07/12 11:16:25;;;;;;;3.60;2.50;;;;;;;23.68;41.94;90353.25;4962111;28;20028;-87
2021/07/12 11:18:53;;;;;;;4.35;2.60;;;;;;;23.60;40.70;90351.91;4975209;28;20041;-90
2021/07/12 11:21:29;;;;;;;5.60;3.05;;;;;;;23.49;39.72;90349.53;4991046;28;20080;-88
2021/07/12 11:24:12;;;;;;;6.55;3.00;;;;;;;23.58;40.25;90346.28;4976068;28;20097;-88
2021/07/12 11:26:39;;;;;;;5.38;2.67;;;;;;;23.66;40.51;90339.59;4991855;28;20030;-88
2021/07/12 11:29:28;;;;;;;4.63;2.85;;;;;;;23.58;40.69;90336.41;4975624;28;20065;-89
2021/07/12 11:31:55;;;;;;;4.47;3.00;;;;;;;23.91;42.14;90336.25;4994709;28;20102;-91
2021/07/12 11:34:32;;;;;;;4.38;2.88;;;;;;;24.22;42.40;90338.44;4979714;28;20054;-92
2021/07/12 11:37:02;;;;;;;5.95;3.22;;;;;;;24.46;41.37;90336.97;4996655;28;20034;-89
2021/07/12 11:39:33;;;;;;;5.65;3.30;;;;;;;24.47;40.05;90332.38;4995461;28;20100;-90
2021/07/12 11:42:10;;;;;;;5.40;3.50;;;;;;;24.74;41.05;90313.28;4979241;28;20557;-89
2021/07/12 11:44:37;;;;;;;5.72;2.90;;;;;;;24.89;39.95;90313.56;4980538;28;20022;-91
2021/07/12 11:47:35;;;;;;;7.57;3.60;;;;;;;24.60;38.20;90311.81;4979497;28;20040;-92
2021/07/12 11:50:10;;;;;;;3.78;2.90;;;;;;;24.58;39.10;90314.13;4980419;28;20025;-89
2021/07/12 11:52:38;;;;;;;4.00;3.22;;;;;;;24.57;37.62;90312.66;4979666;28;20022;-92
2021/07/12 11:55:09;;;;;;;8.32;3.50;;;;;;;24.55;39.00;90313.06;4978983;28;20110;-89
2021/07/12 11:57:35;;;;;;;5.70;3.30;;;;;;;24.61;42.09;90310.63;4995404;28;20050;-90
2021/07/12 12:00:01;;;;;;;5.43;3.13;;;;;;;24.62;41.05;90306.78;4980110;28;20038;-90
2021/07/12 12:02:34;;;;;;;6.53;3.38;;;;;;;24.58;41.16;90308.06;4979371;28;20072;-90
2021/07/12 12:05:00;;;;;;;5.22;3.40;;;;;;;24.85;38.90;90307.59;4979465;28;20512;-89
2021/07/12 12:07:51;;;;;;;6.15;3.75;;;;;;;24.97;41.35;90312.13;4979076;28;20030;-90
2021/07/12 12:10:25;;;;;;;4.90;3.15;;;;;;;25.08;39.19;90309.13;4995020;28;20057;-89